Weather at Dunnville Airport [CLOSED]

Public forecast

Using degrees Celsius for public forecast. Weather courtesy of forecast.io.

Closest aviation weather report (METAR) to Dunnville Airport

Closest report is John C. Munro Hamilton International Airport, 23.4 nm (43.4 km) NW.

2024/05/20 19:00 (retrieved 45 minutes ago)

CYHM 201900Z 18012G17KT 15SM FEW060 SCT250 28/15 A2994 RMK SC1CI4 SC TR SLP138 DENSITY ALT 2500FT

Closest aviation forecast (TAF) to Dunnville Airport

Closest forecast is John C. Munro Hamilton International Airport, 23.4 nm (43.4 km) NW.

2024/05/20 18:48 (retrieved 57 minutes ago)

TAF TAF CYHM 201746Z 2018/2118 20007KT P6SM BKN070 FM202200 19010KT P6SM SCT050 BECMG 2101/2103 16005KT FM210600 18007KT P6SM BKN100 FM211000 21012KT P6SM BKN070 RMK NXT FCST BY 210000Z